createdAt,value
2019-05-26T00:00:31.963Z,66.73
2019-05-26T00:03:02.159Z,63.50
2019-05-26T00:05:32.154Z,63.87
2019-05-26T00:08:02.217Z,63.00
2019-05-26T00:10:32.132Z,68.77
2019-05-26T00:13:02.061Z,58.70
2019-05-26T00:15:31.932Z,56.70
2019-05-26T00:18:01.852Z,56.67
2019-05-26T00:20:31.739Z,54.47
2019-05-26T00:23:01.913Z,53.30
2019-05-26T00:25:32.299Z,47.07
2019-05-26T00:28:02.220Z,51.47
2019-05-26T00:30:32.165Z,51.07
2019-05-26T00:33:02.259Z,43.90
2019-05-26T00:35:32.133Z,40.40
2019-05-26T00:38:02.058Z,44.77
2019-05-26T00:40:31.944Z,46.43
2019-05-26T00:43:01.924Z,49.47
2019-05-26T00:45:32.115Z,45.60
2019-05-26T00:48:02.582Z,48.80
2019-05-26T00:50:32.605Z,49.63
2019-05-26T00:53:02.866Z,44.77
2019-05-26T00:55:32.843Z,49.37
2019-05-26T00:58:03.139Z,50.10
2019-05-26T01:00:43.519Z,45.07
2019-05-26T01:03:13.869Z,45.00
2019-05-26T01:05:43.892Z,51.83
2019-05-26T01:08:14.127Z,58.37
2019-05-26T01:10:44.074Z,52.73
2019-05-26T01:13:14.038Z,47.57
2019-05-26T01:15:43.936Z,72.80
2019-05-26T01:18:13.980Z,58.77
2019-05-26T01:20:43.884Z,76.37
2019-05-26T01:23:13.961Z,44.73
2019-05-26T01:25:44.647Z,45.00
2019-05-26T01:28:14.640Z,67.83
2019-05-26T01:30:44.746Z,61.63
2019-05-26T01:33:14.852Z,50.53
2019-05-26T01:35:44.913Z,60.10
2019-05-26T01:38:23.781Z,55.50
2019-05-26T01:40:47.662Z,63.77
2019-05-26T01:43:17.712Z,56.63
2019-05-26T01:45:47.604Z,51.70
2019-05-26T01:48:17.564Z,49.40
2019-05-26T01:50:47.610Z,55.00
2019-05-26T01:53:17.760Z,60.07
2019-05-26T01:55:48.301Z,65.17
2019-05-26T01:58:18.346Z,56.47
2019-05-26T02:00:48.316Z,47.40
2019-05-26T02:03:18.480Z,47.60
2019-05-26T02:05:48.765Z,57.67
2019-05-26T02:08:18.763Z,53.83
2019-05-26T02:10:49.288Z,51.30
2019-05-26T02:13:19.458Z,50.57
2019-05-26T02:15:49.508Z,48.53
2019-05-26T02:18:19.422Z,47.87
2019-05-26T02:20:49.746Z,47.57
2019-05-26T02:23:19.657Z,41.37
2019-05-26T02:25:49.656Z,42.97
2019-05-26T02:28:19.567Z,44.93
2019-05-26T02:30:49.754Z,44.10
2019-05-26T02:33:20.236Z,53.03
2019-05-26T02:35:50.165Z,58.37
2019-05-26T02:38:20.139Z,58.60
2019-05-26T02:40:52.647Z,50.23
2019-05-26T02:43:22.546Z,51.17
2019-05-26T02:45:52.544Z,51.40
2019-05-26T02:48:22.456Z,54.17
2019-05-26T02:50:53.093Z,50.60
2019-05-26T02:53:24.675Z,51.63
2019-05-26T02:55:54.895Z,52.57
2019-05-26T02:58:24.950Z,48.27
2019-05-26T03:00:55.065Z,47.40
2019-05-26T03:03:25.123Z,44.77
2019-05-26T03:05:56.266Z,40.30
2019-05-26T03:08:27.967Z,40.40
2019-05-26T03:11:01.041Z,42.27
2019-05-26T03:13:35.070Z,44.60
2019-05-26T03:16:06.515Z,35.77
2019-05-26T03:18:39.793Z,38.30
2019-05-26T03:21:10.851Z,32.77
2019-05-26T03:23:42.852Z,39.77
2019-05-26T03:26:13.355Z,35.33
2019-05-26T03:28:43.326Z,29.77
2019-05-26T03:31:13.248Z,34.40
2019-05-26T03:33:43.549Z,33.90
2019-05-26T03:36:13.545Z,34.07
2019-05-26T03:38:43.612Z,42.83
2019-05-26T03:41:13.593Z,47.70
2019-05-26T03:43:43.535Z,48.23
2019-05-26T03:46:22.620Z,53.60
2019-05-26T03:48:53.099Z,46.23
2019-05-26T03:51:23.082Z,70.23
2019-05-26T03:53:53.250Z,66.43
2019-05-26T03:56:23.241Z,48.27
2019-05-26T03:58:53.218Z,66.27
2019-05-26T04:01:23.219Z,59.97
2019-05-26T04:03:53.693Z,70.63
2019-05-26T04:06:23.767Z,52.60
2019-05-26T04:08:54.016Z,44.90
2019-05-26T04:11:23.905Z,30.67
2019-05-26T04:13:53.999Z,35.43
2019-05-26T04:16:23.994Z,38.43
2019-05-26T04:18:54.153Z,34.33
2019-05-26T04:21:24.244Z,33.40
2019-05-26T04:23:54.510Z,31.80
2019-05-26T04:26:24.518Z,35.37
2019-05-26T04:28:54.481Z,32.07
2019-05-26T04:31:24.448Z,33.27
2019-05-26T04:33:56.806Z,31.73
2019-05-26T04:36:26.721Z,30.50
2019-05-26T04:38:56.730Z,27.63
2019-05-26T04:41:26.632Z,37.80
2019-05-26T04:43:56.614Z,32.60
2019-05-26T04:46:26.955Z,31.13
2019-05-26T04:48:56.994Z,27.80
2019-05-26T04:51:26.908Z,46.23
2019-05-26T04:53:57.182Z,32.07
2019-05-26T04:56:27.608Z,26.07
2019-05-26T04:58:57.602Z,30.90
2019-05-26T05:01:28.123Z,27.53
2019-05-26T05:03:58.160Z,23.00
2019-05-26T05:06:28.077Z,34.77
2019-05-26T05:08:58.078Z,29.17
2019-05-26T05:11:27.979Z,35.57
2019-05-26T05:13:58.309Z,34.93
2019-05-26T05:16:28.319Z,47.73
2019-05-26T05:18:58.419Z,84.33
2019-05-26T05:21:28.326Z,20.30
2019-05-26T05:23:58.346Z,18.57
2019-05-26T05:26:28.265Z,42.10
2019-05-26T05:28:58.238Z,48.97
2019-05-26T05:31:28.255Z,26.90
2019-05-26T05:33:58.277Z,19.90
2019-05-26T05:36:28.267Z,28.03
2019-05-26T05:38:58.215Z,33.90
2019-05-26T05:41:28.140Z,82.83
2019-05-26T05:43:58.127Z,30.03
2019-05-26T05:46:28.125Z,28.20
2019-05-26T05:48:58.115Z,28.27
2019-05-26T05:51:28.134Z,133.50
2019-05-26T05:53:58.916Z,36.67
2019-05-26T05:56:28.977Z,26.03
2019-05-26T05:58:58.963Z,94.67
2019-05-26T06:01:28.878Z,60.73
2019-05-26T06:03:58.941Z,39.43
2019-05-26T06:06:28.849Z,52.27
2019-05-26T06:08:58.908Z,42.57
2019-05-26T06:11:28.971Z,81.67
2019-05-26T06:13:59.555Z,36.20
2019-05-26T06:16:29.528Z,27.57
2019-05-26T06:18:59.473Z,58.17
2019-05-26T06:21:29.434Z,76.10
2019-05-26T06:23:59.518Z,94.30
2019-05-26T06:26:29.467Z,31.20
2019-05-26T06:28:59.546Z,64.43
2019-05-26T06:31:29.470Z,181.70
2019-05-26T06:33:59.432Z,39.40
2019-05-26T06:36:29.444Z,66.07
2019-05-26T06:38:59.478Z,18.53
2019-05-26T06:41:33.797Z,94.50
2019-05-26T06:44:01.586Z,33.50
2019-05-26T06:46:31.529Z,17.07
2019-05-26T06:49:01.578Z,15.73
2019-05-26T06:51:31.566Z,19.87
2019-05-26T06:54:01.500Z,13.23
2019-05-26T06:56:31.877Z,14.87
2019-05-26T06:59:02.861Z,25.93
2019-05-26T07:01:33.102Z,15.70
2019-05-26T07:04:03.092Z,13.23
2019-05-26T07:06:33.115Z,30.87
2019-05-26T07:09:03.024Z,14.63
2019-05-26T07:11:49.066Z,14.40
2019-05-26T07:14:05.361Z,12.83
2019-05-26T07:16:38.384Z,12.10
2019-05-26T07:19:07.502Z,12.60
2019-05-26T07:21:36.695Z,12.70
2019-05-26T07:24:06.834Z,11.30
2019-05-26T07:26:36.785Z,10.50
2019-05-26T07:29:06.895Z,12.47
2019-05-26T07:31:36.835Z,11.87
2019-05-26T07:34:07.399Z,9.27
2019-05-26T07:36:37.313Z,10.50
2019-05-26T07:39:09.492Z,11.67
2019-05-26T07:41:39.578Z,11.13
2019-05-26T07:44:09.596Z,10.80
2019-05-26T07:46:40.182Z,12.10
2019-05-26T07:49:10.095Z,10.77
2019-05-26T07:51:40.128Z,10.87
2019-05-26T07:54:24.502Z,11.93
2019-05-26T07:56:41.794Z,10.60
2019-05-26T07:59:11.778Z,11.23
2019-05-26T08:01:41.816Z,10.93
2019-05-26T08:04:11.823Z,11.70
2019-05-26T08:06:41.860Z,10.90
2019-05-26T08:09:12.104Z,11.70
2019-05-26T08:11:42.059Z,10.67
2019-05-26T08:14:12.035Z,11.50
2019-05-26T08:16:42.350Z,11.70
2019-05-26T08:19:12.427Z,10.83
2019-05-26T08:21:42.360Z,10.10
2019-05-26T08:24:12.549Z,9.23
2019-05-26T08:26:42.595Z,9.77
2019-05-26T08:29:13.154Z,9.40
2019-05-26T08:31:43.338Z,10.23
2019-05-26T08:34:13.251Z,9.73
2019-05-26T08:36:43.345Z,10.57
2019-05-26T08:39:13.336Z,10.53
2019-05-26T08:41:43.280Z,11.70
2019-05-26T08:44:13.180Z,9.87
2019-05-26T08:46:43.121Z,11.40
2019-05-26T08:49:13.785Z,10.00
2019-05-26T08:51:43.747Z,12.60
2019-05-26T08:54:14.350Z,10.87
2019-05-26T08:56:44.362Z,10.87
2019-05-26T08:59:14.268Z,11.13
2019-05-26T09:01:44.239Z,11.10
2019-05-26T09:04:14.224Z,11.40
2019-05-26T09:06:44.183Z,10.57
2019-05-26T09:09:14.591Z,10.40
2019-05-26T09:11:44.733Z,10.10
2019-05-26T09:14:14.657Z,10.80
2019-05-26T09:16:45.319Z,10.20
2019-05-26T09:19:15.307Z,10.50
2019-05-26T09:21:45.291Z,10.63
2019-05-26T09:24:15.242Z,10.77
2019-05-26T09:26:45.269Z,10.67
2019-05-26T09:29:15.248Z,10.40
2019-05-26T09:31:45.200Z,11.67
2019-05-26T09:34:15.399Z,10.67
2019-05-26T09:36:45.506Z,11.17
2019-05-26T09:39:15.485Z,11.27
2019-05-26T09:41:45.382Z,9.40
2019-05-26T09:44:15.368Z,9.10
2019-05-26T09:46:45.271Z,9.13
2019-05-26T09:49:15.431Z,10.77
2019-05-26T09:51:45.355Z,11.07
2019-05-26T09:54:15.525Z,10.63
2019-05-26T09:56:45.592Z,11.67
2019-05-26T09:59:15.579Z,11.33
2019-05-26T10:01:46.205Z,10.60
2019-05-26T10:04:16.285Z,9.83
2019-05-26T10:06:46.205Z,11.73
2019-05-26T10:09:16.149Z,9.67
2019-05-26T10:11:46.298Z,9.40
2019-05-26T10:14:16.322Z,10.70
2019-05-26T10:16:46.333Z,12.10
2019-05-26T10:19:16.349Z,11.80
2019-05-26T10:21:46.293Z,10.60
2019-05-26T10:24:16.443Z,10.03
2019-05-26T10:26:46.347Z,11.27
2019-05-26T10:29:16.279Z,9.60
2019-05-26T10:31:46.200Z,10.77
2019-05-26T10:34:16.777Z,11.07
2019-05-26T10:36:46.714Z,10.93
2019-05-26T10:39:16.844Z,10.30
2019-05-26T10:41:47.398Z,10.40
2019-05-26T10:44:18.070Z,10.07
2019-05-26T10:46:47.979Z,7.50
2019-05-26T10:49:18.230Z,10.13
2019-05-26T10:51:48.225Z,11.87
2019-05-26T10:54:18.289Z,9.80
2019-05-26T10:56:48.420Z,7.30
2019-05-26T10:59:18.339Z,8.13
2019-05-26T11:01:48.361Z,8.43
2019-05-26T11:04:18.347Z,8.33
2019-05-26T11:06:48.348Z,7.53
2019-05-26T11:09:18.340Z,7.17
2019-05-26T11:11:48.396Z,8.80
2019-05-26T11:14:18.430Z,8.70
2019-05-26T11:16:48.562Z,6.87
2019-05-26T11:19:19.217Z,6.57
2019-05-26T11:21:49.353Z,7.40
2019-05-26T11:24:19.375Z,7.43
2019-05-26T11:26:49.668Z,7.23
2019-05-26T11:29:19.771Z,6.57
2019-05-26T11:31:49.735Z,7.03
2019-05-26T11:34:19.706Z,7.07
2019-05-26T11:36:49.657Z,6.93
2019-05-26T11:39:19.556Z,6.70
2019-05-26T11:41:55.009Z,6.77
2019-05-26T11:44:21.139Z,6.60
2019-05-26T11:46:51.221Z,6.00
2019-05-26T11:49:21.146Z,7.00
2019-05-26T11:51:51.226Z,6.80
2019-05-26T11:54:21.184Z,6.77
2019-05-26T11:56:51.161Z,5.03
2019-05-26T11:59:21.145Z,6.03
2019-05-26T12:01:51.078Z,6.17
2019-05-26T12:04:21.015Z,5.90
2019-05-26T12:06:51.059Z,7.47
2019-05-26T12:09:21.059Z,7.80
2019-05-26T12:11:51.073Z,7.30
2019-05-26T12:14:34.475Z,6.97
2019-05-26T12:16:54.630Z,8.30
2019-05-26T12:19:24.669Z,6.50
2019-05-26T12:21:54.616Z,7.37
2019-05-26T12:24:24.610Z,9.07
2019-05-26T12:26:54.563Z,8.53
2019-05-26T12:29:24.830Z,8.40
2019-05-26T12:31:54.905Z,8.37
2019-05-26T12:34:24.914Z,8.90
2019-05-26T12:36:54.929Z,8.57
2019-05-26T12:39:24.892Z,8.20
2019-05-26T12:41:54.883Z,7.53
2019-05-26T12:44:24.830Z,7.80
2019-05-26T12:46:55.004Z,7.10
2019-05-26T12:49:27.752Z,6.50
2019-05-26T12:51:56.837Z,7.10
2019-05-26T12:54:26.898Z,5.70
2019-05-26T12:56:57.024Z,6.40
2019-05-26T12:59:26.938Z,5.30
2019-05-26T13:01:56.881Z,6.77
2019-05-26T13:04:26.924Z,7.10
2019-05-26T13:06:56.917Z,6.67
2019-05-26T13:09:27.046Z,5.80
2019-05-26T13:11:57.073Z,6.17
2019-05-26T13:14:27.105Z,7.20
2019-05-26T13:17:01.404Z,6.60
2019-05-26T13:19:29.297Z,5.57
2019-05-26T13:21:59.304Z,6.70
2019-05-26T13:24:29.205Z,6.90
2019-05-26T13:26:59.140Z,6.40
2019-05-26T13:29:29.051Z,7.90
2019-05-26T13:31:58.988Z,7.07
2019-05-26T13:34:29.057Z,6.80
2019-05-26T13:36:59.221Z,5.90
2019-05-26T13:39:29.200Z,7.13
2019-05-26T13:41:59.105Z,6.43
2019-05-26T13:44:30.403Z,5.73
2019-05-26T13:47:00.455Z,6.60
2019-05-26T13:49:30.428Z,7.37
2019-05-26T13:52:00.414Z,6.10
2019-05-26T13:54:30.440Z,5.17
2019-05-26T13:57:00.416Z,5.50
2019-05-26T13:59:31.025Z,5.07
2019-05-26T14:02:01.078Z,5.80
2019-05-26T14:04:31.338Z,6.20
2019-05-26T14:07:01.232Z,6.67
2019-05-26T14:09:31.132Z,5.17
2019-05-26T14:12:01.219Z,5.23
2019-05-26T14:14:31.497Z,5.70
2019-05-26T14:17:03.141Z,5.27
2019-05-26T14:19:34.867Z,5.37
2019-05-26T14:22:05.056Z,5.40
2019-05-26T14:24:35.359Z,5.17
2019-05-26T14:27:05.735Z,4.90
2019-05-26T14:29:35.707Z,5.10
2019-05-26T14:32:05.810Z,4.87
2019-05-26T14:34:36.384Z,4.27
2019-05-26T14:37:06.553Z,4.63
2019-05-26T14:39:36.533Z,5.00
2019-05-26T14:42:06.612Z,4.37
2019-05-26T14:44:37.025Z,4.60
2019-05-26T14:47:07.098Z,4.70
2019-05-26T14:49:37.273Z,4.40
2019-05-26T14:52:07.533Z,5.10
2019-05-26T14:54:37.548Z,4.03
2019-05-26T14:57:07.600Z,5.20
2019-05-26T14:59:37.555Z,5.10
2019-05-26T15:02:07.771Z,5.00
2019-05-26T15:04:37.916Z,4.20
2019-05-26T15:07:08.024Z,4.53
2019-05-26T15:09:37.923Z,4.50
2019-05-26T15:12:08.251Z,4.10
2019-05-26T15:14:38.236Z,3.83
2019-05-26T15:17:08.313Z,3.73
2019-05-26T15:19:38.993Z,4.90
2019-05-26T15:22:08.973Z,3.63
2019-05-26T15:24:39.033Z,3.73
2019-05-26T15:27:08.928Z,4.50
2019-05-26T15:29:39.174Z,3.37
2019-05-26T15:32:09.189Z,3.53
2019-05-26T15:34:41.907Z,4.67
2019-05-26T15:37:11.922Z,5.50
2019-05-26T15:39:41.981Z,3.90
2019-05-26T15:42:11.964Z,3.97
2019-05-26T15:44:46.503Z,3.33
2019-05-26T15:47:16.765Z,3.17
2019-05-26T15:49:46.900Z,3.23
2019-05-26T15:52:16.974Z,3.20
2019-05-26T15:54:46.885Z,3.70
2019-05-26T15:57:16.879Z,3.43
2019-05-26T15:59:46.857Z,3.97
2019-05-26T16:02:16.992Z,3.53
2019-05-26T16:04:46.882Z,3.50
2019-05-26T16:07:16.825Z,3.97
2019-05-26T16:09:46.719Z,4.33
2019-05-26T16:12:16.764Z,4.20
2019-05-26T16:14:46.887Z,3.80
2019-05-26T16:17:16.838Z,3.40
2019-05-26T16:19:46.788Z,4.00
2019-05-26T16:22:16.846Z,3.60
2019-05-26T16:24:46.757Z,3.30
2019-05-26T16:27:19.491Z,4.10
2019-05-26T16:29:48.960Z,3.67
2019-05-26T16:32:19.186Z,2.90
2019-05-26T16:34:49.142Z,4.00
2019-05-26T16:37:20.021Z,3.63
2019-05-26T16:39:49.975Z,3.63
2019-05-26T16:42:20.583Z,3.50
2019-05-26T16:44:50.698Z,4.70
2019-05-26T16:47:20.601Z,3.30
2019-05-26T16:49:50.537Z,3.63
2019-05-26T16:52:20.661Z,3.33
2019-05-26T16:54:51.533Z,3.50
2019-05-26T16:57:21.462Z,2.83
2019-05-26T16:59:51.398Z,2.97
2019-05-26T17:02:21.883Z,3.40
2019-05-26T17:04:52.021Z,3.80
2019-05-26T17:07:22.659Z,3.67
2019-05-26T17:09:52.560Z,3.43
2019-05-26T17:12:22.593Z,4.53
2019-05-26T17:14:52.523Z,3.73
2019-05-26T17:17:23.132Z,3.20
2019-05-26T17:19:53.103Z,3.40
2019-05-26T17:22:23.143Z,3.87
2019-05-26T17:24:53.060Z,3.53
2019-05-26T17:27:23.315Z,3.87
2019-05-26T17:29:53.764Z,3.27
2019-05-26T17:32:23.802Z,3.70
2019-05-26T17:34:53.989Z,3.70
2019-05-26T17:37:24.054Z,3.03
2019-05-26T17:39:53.971Z,3.00
2019-05-26T17:42:23.916Z,3.90
2019-05-26T17:44:53.820Z,4.60
2019-05-26T17:47:30.153Z,4.10
2019-05-26T17:49:55.583Z,3.87
2019-05-26T17:52:26.177Z,4.00
2019-05-26T17:54:56.105Z,3.67
2019-05-26T17:57:26.005Z,4.10
2019-05-26T17:59:56.561Z,3.47
2019-05-26T18:02:26.584Z,4.17
2019-05-26T18:04:56.490Z,3.80
2019-05-26T18:07:26.510Z,3.40
2019-05-26T18:09:56.888Z,3.80
2019-05-26T18:12:26.976Z,3.63
2019-05-26T18:14:56.870Z,4.00
2019-05-26T18:17:26.895Z,3.50
2019-05-26T18:19:56.808Z,3.40
2019-05-26T18:22:27.210Z,3.33
2019-05-26T18:24:58.857Z,3.47
2019-05-26T18:27:29.066Z,3.90
2019-05-26T18:29:58.967Z,3.03
2019-05-26T18:32:28.962Z,3.00
2019-05-26T18:34:59.486Z,3.03
2019-05-26T18:37:29.386Z,3.17
2019-05-26T18:39:59.337Z,3.30
2019-05-26T18:42:29.302Z,3.33
2019-05-26T18:44:59.252Z,3.07
2019-05-26T18:47:29.445Z,3.10
2019-05-26T18:49:59.367Z,3.10
2019-05-26T18:52:29.720Z,2.80
2019-05-26T18:54:59.653Z,3.30
2019-05-26T18:57:29.615Z,3.60
2019-05-26T18:59:59.578Z,3.37
2019-05-26T19:02:29.700Z,3.70
2019-05-26T19:04:59.675Z,3.50
2019-05-26T19:07:31.140Z,3.20
2019-05-26T19:10:01.081Z,3.90
2019-05-26T19:12:31.231Z,3.20
2019-05-26T19:15:01.251Z,4.80
2019-05-26T19:17:31.406Z,3.90
2019-05-26T19:20:14.832Z,3.83
2019-05-26T19:22:33.118Z,4.00
2019-05-26T19:25:03.392Z,4.13
2019-05-26T19:27:33.437Z,4.40
2019-05-26T19:30:03.484Z,4.20
2019-05-26T19:32:33.623Z,4.77
2019-05-26T19:35:03.947Z,4.00
2019-05-26T19:37:33.890Z,4.33
2019-05-26T19:40:03.843Z,4.30
2019-05-26T19:42:33.789Z,4.73
2019-05-26T19:45:03.820Z,4.10
2019-05-26T19:47:33.761Z,4.80
2019-05-26T19:50:04.042Z,5.37
2019-05-26T19:52:33.981Z,4.83
2019-05-26T19:55:04.093Z,5.20
2019-05-26T19:57:34.172Z,4.90
2019-05-26T20:00:05.063Z,4.97
2019-05-26T20:02:35.366Z,5.57
2019-05-26T20:05:06.842Z,5.87
2019-05-26T20:07:37.043Z,6.10
2019-05-26T20:10:07.422Z,5.50
2019-05-26T20:12:37.717Z,5.30
2019-05-26T20:15:10.463Z,5.33
2019-05-26T20:17:40.504Z,5.57
2019-05-26T20:20:12.028Z,6.30
2019-05-26T20:22:42.003Z,5.63
2019-05-26T20:25:12.176Z,5.80
2019-05-26T20:27:42.377Z,5.67
2019-05-26T20:30:12.644Z,5.00
2019-05-26T20:32:42.730Z,5.73
2019-05-26T20:35:13.215Z,4.60
2019-05-26T20:37:43.207Z,5.00
2019-05-26T20:40:14.309Z,5.53
2019-05-26T20:42:44.316Z,4.90
2019-05-26T20:45:16.814Z,5.57
2019-05-26T20:47:46.749Z,4.90
2019-05-26T20:50:28.695Z,4.70
2019-05-26T20:52:48.912Z,4.83
2019-05-26T20:55:19.126Z,4.03
2019-05-26T20:57:49.114Z,6.07
2019-05-26T21:00:19.529Z,4.90
2019-05-26T21:02:49.453Z,4.33
2019-05-26T21:05:19.521Z,4.83
2019-05-26T21:07:49.801Z,5.10
2019-05-26T21:10:19.864Z,4.90
2019-05-26T21:12:50.283Z,5.00
2019-05-26T21:15:20.385Z,5.20
2019-05-26T21:17:50.563Z,5.50
2019-05-26T21:20:20.929Z,4.73
2019-05-26T21:22:51.095Z,5.20
2019-05-26T21:25:21.518Z,5.70
2019-05-26T21:27:51.465Z,5.20
2019-05-26T21:30:21.649Z,5.80
2019-05-26T21:32:51.556Z,4.63
2019-05-26T21:35:21.572Z,4.97
2019-05-26T21:37:51.476Z,5.10
2019-05-26T21:40:22.079Z,4.43
2019-05-26T21:42:51.985Z,5.57
2019-05-26T21:45:22.226Z,4.60
2019-05-26T21:47:52.391Z,5.33
2019-05-26T21:50:22.847Z,6.50
2019-05-26T21:52:52.824Z,6.10
2019-05-26T21:55:22.760Z,5.60
2019-05-26T21:57:52.759Z,5.87
2019-05-26T22:00:25.068Z,5.20
2019-05-26T22:02:55.187Z,5.63
2019-05-26T22:05:25.152Z,4.83
2019-05-26T22:07:55.351Z,5.77
2019-05-26T22:10:25.358Z,4.83
2019-05-26T22:12:55.274Z,6.00
2019-05-26T22:15:25.593Z,4.93
2019-05-26T22:17:55.514Z,6.50
2019-05-26T22:20:25.568Z,6.93
2019-05-26T22:22:56.208Z,6.27
2019-05-26T22:25:26.561Z,4.97
2019-05-26T22:27:56.548Z,7.40
2019-05-26T22:30:26.581Z,5.07
2019-05-26T22:32:56.677Z,6.30
2019-05-26T22:35:26.752Z,7.43
2019-05-26T22:37:57.379Z,14.07
2019-05-26T22:40:27.410Z,7.30
2019-05-26T22:42:58.092Z,7.20
2019-05-26T22:45:28.051Z,8.73
2019-05-26T22:47:57.976Z,6.50
2019-05-26T22:50:28.068Z,9.47
2019-05-26T22:52:58.562Z,6.87
2019-05-26T22:55:28.665Z,12.27
2019-05-26T22:57:58.697Z,7.10
2019-05-26T23:00:29.660Z,7.60
2019-05-26T23:02:59.631Z,8.40
2019-05-26T23:05:29.584Z,7.90
2019-05-26T23:07:59.511Z,6.90
2019-05-26T23:10:29.876Z,7.60
2019-05-26T23:12:59.861Z,7.90
2019-05-26T23:15:30.200Z,6.90
2019-05-26T23:18:00.187Z,7.13
2019-05-26T23:20:30.135Z,7.23
2019-05-26T23:23:00.071Z,8.80
2019-05-26T23:25:30.043Z,7.53
2019-05-26T23:28:00.039Z,7.77
2019-05-26T23:30:30.050Z,6.93
2019-05-26T23:32:59.991Z,7.73
2019-05-26T23:35:29.953Z,8.43
2019-05-26T23:37:59.938Z,8.27
2019-05-26T23:40:29.977Z,8.20
2019-05-26T23:42:59.876Z,7.00
2019-05-26T23:45:29.808Z,6.70
2019-05-26T23:47:59.726Z,8.00
2019-05-26T23:50:29.682Z,6.73
2019-05-26T23:52:59.584Z,7.37
2019-05-26T23:55:29.589Z,8.47
2019-05-26T23:57:59.521Z,7.60
